Time;durP1;ratioP1;P1;durP2;ratioP2;P2;SDS_P1;SDS_P2;PMS_P1;PMS_P2;Temp;Humidity;BMP_temperature;BMP_pressure;BME280_temperature;BME280_humidity;BME280_pressure;Samples;Min_cycle;Max_cycle;Signal;HPM_P1;HPM_P2
2023/04/24 00:02:21;;;;;;;5.80;4.40;;;14.20;99.90;;;;;;5033516;28;20482;-49
2023/04/24 00:04:48;;;;;;;5.27;4.77;;;14.60;99.90;;;;;;5033760;28;20475;-49
2023/04/24 00:07:16;;;;;;;5.13;4.70;;;14.50;99.90;;;;;;5033734;28;20515;-49
2023/04/24 00:09:43;;;;;;;5.63;5.13;;;14.30;99.90;;;;;;5033193;28;20782;-49
2023/04/24 00:12:10;;;;;;;6.20;5.60;;;14.10;99.90;;;;;;5033476;28;20434;-49
2023/04/24 00:14:36;;;;;;;5.80;5.20;;;14.10;99.90;;;;;;5033631;28;20426;-49
2023/04/24 00:17:03;;;;;;;5.50;4.70;;;14.30;99.90;;;;;;5033408;28;20513;-49
2023/04/24 00:19:30;;;;;;;5.30;4.80;;;14.10;99.90;;;;;;5033137;28;20437;-49
2023/04/24 00:21:56;;;;;;;6.20;5.20;;;14.30;99.90;;;;;;5033421;28;20472;-49
2023/04/24 00:24:24;;;;;;;5.77;5.00;;;14.10;99.90;;;;;;5033173;28;20432;-49
2023/04/24 00:26:51;;;;;;;6.53;5.40;;;14.20;99.90;;;;;;5033201;28;20445;-49
2023/04/24 00:29:18;;;;;;;7.57;5.20;;;14.10;99.90;;;;;;5015056;28;20452;-49
2023/04/24 00:31:44;;;;;;;5.93;5.37;;;14.00;99.90;;;;;;5015405;28;20534;-49
2023/04/24 00:34:11;;;;;;;5.60;5.10;;;14.30;99.90;;;;;;5015287;28;20451;-49
2023/04/24 00:36:38;;;;;;;5.70;5.10;;;14.10;99.90;;;;;;5033028;28;20488;-49
2023/04/24 00:39:04;;;;;;;7.50;4.97;;;14.30;99.90;;;;;;5032599;28;20431;-49
2023/04/24 00:41:33;;;;;;;9.00;6.20;;;13.70;99.90;;;;;;5032841;28;20471;-49
2023/04/24 00:43:59;;;;;;;5.93;5.43;;;13.90;99.90;;;;;;5032829;28;20938;-49
2023/04/24 00:46:26;;;;;;;6.03;5.53;;;14.00;99.90;;;;;;5032963;28;20438;-49
2023/04/24 00:48:53;;;;;;;6.03;5.53;;;14.00;99.90;;;;;;5014763;28;20454;-49
2023/04/24 00:51:20;;;;;;;6.20;5.63;;;14.10;99.90;;;;;;5032968;28;20795;-49
2023/04/24 00:53:47;;;;;;;6.63;5.67;;;13.80;99.90;;;;;;5032769;28;21023;-49
2023/04/24 00:56:14;;;;;;;7.90;5.37;;;13.90;99.90;;;;;;5033251;28;20431;-49
2023/04/24 00:58:42;;;;;;;6.00;5.50;;;14.20;99.90;;;;;;5032374;28;20434;-49
2023/04/24 01:01:11;;;;;;;5.33;4.83;;;14.10;99.90;;;;;;5031145;28;20462;-49
2023/04/24 01:03:39;;;;;;;5.50;5.00;;;13.80;99.90;;;;;;5015116;28;20454;-49
2023/04/24 01:06:06;;;;;;;6.80;5.77;;;14.20;99.90;;;;;;5032509;28;20554;-49
2023/04/24 01:08:35;;;;;;;6.73;5.63;;;14.20;99.90;;;;;;5032073;28;20427;-49
2023/04/24 01:11:05;;;;;;;6.50;5.80;;;13.80;99.90;;;;;;5032411;28;20438;-49
2023/04/24 01:13:32;;;;;;;5.93;5.23;;;13.90;99.90;;;;;;5032682;28;20730;-49
2023/04/24 01:16:01;;;;;;;5.50;5.00;;;14.00;99.90;;;;;;5032445;28;20837;-49
2023/04/24 01:18:28;;;;;;;8.10;6.30;;;13.70;99.90;;;;;;5032505;28;20435;-49
2023/04/24 01:20:58;;;;;;;6.57;5.97;;;13.80;99.90;;;;;;5033013;28;20479;-48
2023/04/24 01:23:26;;;;;;;9.53;5.57;;;13.70;99.90;;;;;;5014996;28;20454;-48
2023/04/24 01:25:53;;;;;;;6.50;5.90;;;14.20;99.90;;;;;;5032729;28;20447;-49
2023/04/24 01:28:20;;;;;;;6.50;5.90;;;14.20;99.90;;;;;;5014682;28;20453;-48
2023/04/24 01:30:47;;;;;;;6.87;6.20;;;14.00;99.90;;;;;;5032503;28;20406;-49
2023/04/24 01:33:14;;;;;;;6.27;5.37;;;13.70;99.90;;;;;;5032534;28;20495;-48
2023/04/24 01:35:41;;;;;;;6.00;5.40;;;13.20;99.90;;;;;;5014234;28;20954;-49
2023/04/24 01:38:07;;;;;;;6.70;5.70;;;13.50;99.90;;;;;;5031760;28;20398;-49
2023/04/24 01:40:37;;;;;;;6.00;5.20;;;14.20;99.90;;;;;;5014457;28;20801;-49
2023/04/24 01:43:04;;;;;;;6.50;5.90;;;13.70;99.90;;;;;;5031966;28;20566;-49
2023/04/24 01:45:31;;;;;;;5.80;5.30;;;14.20;99.90;;;;;;5014186;28;20469;-49
2023/04/24 01:47:57;;;;;;;7.33;5.30;;;13.90;99.90;;;;;;5014072;28;20452;-49
2023/04/24 01:50:24;;;;;;;6.23;5.70;;;13.60;99.90;;;;;;5031091;28;20936;-48
2023/04/24 01:52:51;;;;;;;9.37;6.77;;;13.60;99.90;;;;;;5031860;28;20924;-49
2023/04/24 01:55:17;;;;;;;6.53;5.90;;;13.60;99.90;;;;;;5014095;28;20471;-49
2023/04/24 01:57:46;;;;;;;6.20;5.70;;;13.60;99.90;;;;;;5014014;28;20434;-49
2023/04/24 02:00:14;;;;;;;6.47;5.87;;;14.20;99.90;;;;;;5031334;28;20439;-49
2023/04/24 02:02:41;;;;;;;7.07;5.97;;;13.80;99.90;;;;;;5031516;28;20890;-49
2023/04/24 02:05:09;;;;;;;6.17;5.67;;;13.80;99.90;;;;;;5056282;23;21006;-49
2023/04/24 02:07:36;;;;;;;6.33;5.80;;;13.90;99.90;;;;;;5014735;28;20428;-49
2023/04/24 02:10:03;;;;;;;7.43;6.70;;;13.90;99.90;;;;;;5014150;28;20451;-48
2023/04/24 02:12:30;;;;;;;7.60;6.90;;;13.70;99.90;;;;;;5032093;28;20402;-49
2023/04/24 02:14:58;;;;;;;7.50;6.80;;;13.70;99.90;;;;;;5014441;28;20829;-49
2023/04/24 02:17:25;;;;;;;7.30;6.70;;;13.40;99.90;;;;;;5031957;28;20859;-49
2023/04/24 02:19:51;;;;;;;6.37;5.73;;;13.60;99.90;;;;;;5032133;28;20446;-49
2023/04/24 02:22:18;;;;;;;6.90;6.40;;;13.70;99.90;;;;;;5014406;28;20478;-49
2023/04/24 02:24:45;;;;;;;7.00;6.33;;;13.70;99.90;;;;;;5032106;28;20961;-49
2023/04/24 02:27:14;;;;;;;7.60;6.90;;;13.40;99.90;;;;;;5014322;28;20489;-49
2023/04/24 02:29:41;;;;;;;6.93;6.40;;;13.60;99.90;;;;;;5013909;28;20475;-49
2023/04/24 02:32:11;;;;;;;7.50;6.80;;;13.80;99.90;;;;;;5031957;28;20405;-48
2023/04/24 02:34:38;;;;;;;7.43;6.80;;;13.80;99.90;;;;;;5014763;28;20459;-49
2023/04/24 02:37:05;;;;;;;7.47;6.77;;;13.60;99.90;;;;;;5014570;28;20465;-49
2023/04/24 02:39:31;;;;;;;7.70;7.07;;;13.90;99.90;;;;;;5031756;28;20434;-49
2023/04/24 02:41:58;;;;;;;9.50;8.60;;;13.70;99.90;;;;;;5014724;28;20482;-49
2023/04/24 02:44:24;;;;;;;7.53;6.83;;;13.50;99.90;;;;;;5031927;28;20449;-49
2023/04/24 02:46:51;;;;;;;7.00;6.40;;;13.40;99.90;;;;;;5032052;28;20420;-49
2023/04/24 02:49:19;;;;;;;7.30;6.60;;;13.60;99.90;;;;;;5031576;28;20731;-49
2023/04/24 02:51:46;;;;;;;7.20;6.60;;;13.60;99.90;;;;;;5014211;28;20527;-49
2023/04/24 02:54:12;;;;;;;8.30;6.83;;;13.60;99.90;;;;;;5014075;28;20453;-49
2023/04/24 02:56:39;;;;;;;7.93;7.27;;;13.80;99.90;;;;;;5014028;28;20454;-49
2023/04/24 02:59:07;;;;;;;7.73;7.03;;;13.80;99.90;;;;;;5013701;28;20919;-49
2023/04/24 03:01:34;;;;;;;7.47;6.77;;;13.80;99.90;;;;;;5013976;28;20486;-49
2023/04/24 03:04:01;;;;;;;9.23;7.40;;;13.70;99.90;;;;;;5016750;28;20926;-49
2023/04/24 03:06:28;;;;;;;7.37;6.50;;;13.70;99.90;;;;;;5017996;28;20577;-49
2023/04/24 03:08:55;;;;;;;7.93;7.13;;;13.70;99.90;;;;;;5017214;28;20478;-49
2023/04/24 03:11:22;;;;;;;7.90;7.10;;;13.70;99.90;;;;;;5017735;28;20840;-49
2023/04/24 03:13:48;;;;;;;8.80;8.00;;;13.40;99.90;;;;;;5017424;28;20440;-48
2023/04/24 03:16:15;;;;;;;8.27;7.20;;;13.30;99.90;;;;;;5017755;28;20482;-49
2023/04/24 03:18:41;;;;;;;9.77;7.73;;;13.90;99.90;;;;;;5017016;28;20537;-49
2023/04/24 03:21:09;;;;;;;9.37;8.50;;;13.80;99.90;;;;;;5017499;28;21017;-48
2023/04/24 03:23:37;;;;;;;8.50;7.70;;;13.50;99.90;;;;;;5017011;28;20502;-49
2023/04/24 03:26:04;;;;;;;8.77;7.90;;;13.80;99.90;;;;;;5016774;28;20468;-48
2023/04/24 03:28:32;;;;;;;11.30;8.50;;;13.90;99.90;;;;;;5016572;28;20460;-48
2023/04/24 03:31:01;;;;;;;12.17;7.67;;;13.70;99.90;;;;;;5017080;28;20683;-48
2023/04/24 03:33:32;;;;;;;13.30;8.53;;;13.60;99.90;;;;;;5016894;28;20459;-48
2023/04/24 03:36:01;;;;;;;8.53;7.73;;;14.00;99.90;;;;;;5033858;28;20479;-48
2023/04/24 03:38:36;;;;;;;9.10;6.90;;;13.70;99.90;;;;;;5016457;28;20832;-48
2023/04/24 03:41:30;;;;;;;9.03;8.23;;;14.20;99.90;;;;;;5032098;28;20931;-49
2023/04/24 03:44:22;;;;;;;8.23;7.50;;;13.80;99.90;;;;;;5031383;28;20535;-48
2023/04/24 03:46:49;;;;;;;8.13;7.40;;;13.50;99.90;;;;;;5034655;28;20421;-48
2023/04/24 03:49:16;;;;;;;9.50;8.47;;;13.90;99.90;;;;;;5016448;28;20505;-48
2023/04/24 03:51:45;;;;;;;8.00;7.30;;;13.70;99.90;;;;;;5017138;28;20454;-48
2023/04/24 03:54:21;;;;;;;8.07;7.17;;;14.00;99.90;;;;;;5016556;28;20971;-49
2023/04/24 03:56:49;;;;;;;7.77;7.07;;;14.30;99.90;;;;;;5016759;28;20470;-48
2023/04/24 03:59:16;;;;;;;8.13;7.30;;;13.90;99.90;;;;;;5016096;28;20451;-48
2023/04/24 04:01:47;;;;;;;9.57;7.33;;;13.90;99.90;;;;;;5016876;28;21021;-49
2023/04/24 04:04:17;;;;;;;10.93;8.33;;;13.80;99.90;;;;;;5015996;28;20506;-48
2023/04/24 04:06:46;;;;;;;9.23;8.23;;;13.90;99.90;;;;;;5016252;28;20447;-48
2023/04/24 04:09:13;;;;;;;8.63;7.73;;;14.30;99.90;;;;;;5016096;28;20466;-48
2023/04/24 04:11:41;;;;;;;8.97;8.07;;;13.70;99.90;;;;;;5034325;28;20439;-49
2023/04/24 04:14:08;;;;;;;11.23;7.63;;;13.80;99.90;;;;;;5033712;28;20444;-48
2023/04/24 04:16:37;;;;;;;10.63;7.50;;;13.90;99.90;;;;;;5015938;28;20437;-49
2023/04/24 04:19:04;;;;;;;9.30;8.37;;;13.90;99.90;;;;;;5016230;28;20901;-48
2023/04/24 04:21:32;;;;;;;8.43;7.63;;;13.60;99.90;;;;;;5016419;28;20452;-48
2023/04/24 04:24:09;;;;;;;10.67;7.37;;;13.60;99.90;;;;;;5016000;28;20548;-48
2023/04/24 04:26:41;;;;;;;10.53;8.03;;;13.40;99.90;;;;;;5016466;28;20477;-48
2023/04/24 04:29:10;;;;;;;10.03;7.37;;;13.90;99.90;;;;;;5017526;28;20534;-48
2023/04/24 04:31:40;;;;;;;10.77;7.63;;;14.40;99.90;;;;;;5016419;28;20458;-48
2023/04/24 04:34:11;;;;;;;8.33;7.43;;;13.80;99.90;;;;;;5015758;28;20441;-48
2023/04/24 04:36:39;;;;;;;7.60;6.80;;;14.40;99.90;;;;;;5016260;28;20536;-48
2023/04/24 04:39:20;;;;;;;8.83;7.60;;;13.90;99.90;;;;;;5015484;28;20510;-48
2023/04/24 04:42:07;;;;;;;9.57;7.47;;;14.00;99.90;;;;;;5015748;28;20613;-49
2023/04/24 04:44:39;;;;;;;7.87;7.17;;;14.00;99.90;;;;;;5015810;28;20837;-49
2023/04/24 04:47:08;;;;;;;8.97;7.60;;;14.10;99.90;;;;;;5033088;28;21062;-49
2023/04/24 04:49:36;;;;;;;8.33;7.53;;;13.80;99.90;;;;;;5015324;28;20456;-49
2023/04/24 04:52:05;;;;;;;7.20;6.60;;;14.00;99.90;;;;;;5015210;28;20466;-49
2023/04/24 04:54:32;;;;;;;7.90;7.20;;;14.10;99.90;;;;;;5033007;28;20552;-50
2023/04/24 04:56:58;;;;;;;6.90;6.30;;;14.00;99.90;;;;;;5015333;28;20517;-49
2023/04/24 04:59:26;;;;;;;8.90;6.93;;;13.60;99.90;;;;;;5014847;28;20469;-49
2023/04/24 05:02:00;;;;;;;8.17;6.77;;;14.10;99.90;;;;;;5014859;28;20447;-49
2023/04/24 05:04:27;;;;;;;8.27;7.47;;;14.00;99.90;;;;;;5033677;28;20859;-49
2023/04/24 05:06:53;;;;;;;8.40;7.60;;;14.10;99.90;;;;;;5015111;28;20538;-48
2023/04/24 05:09:22;;;;;;;7.50;6.80;;;14.10;99.90;;;;;;5014782;28;20464;-49
2023/04/24 05:12:02;;;;;;;8.10;7.30;;;14.10;99.90;;;;;;5014905;28;20451;-49
2023/04/24 05:14:34;;;;;;;8.90;8.10;;;13.90;99.90;;;;;;5015012;28;20524;-48
2023/04/24 05:17:01;;;;;;;8.07;7.27;;;14.30;99.90;;;;;;5014869;28;20513;-48
2023/04/24 05:19:27;;;;;;;9.20;7.90;;;14.70;99.90;;;;;;5014467;28;20433;-49
2023/04/24 05:21:54;;;;;;;8.17;7.33;;;14.60;99.90;;;;;;5015087;28;20458;-48
2023/04/24 05:24:21;;;;;;;7.47;6.17;;;14.60;99.90;;;;;;5014294;28;20458;-49
2023/04/24 05:27:07;;;;;;;7.60;6.90;;;14.40;99.90;;;;;;5014053;28;20453;-49
2023/04/24 05:29:40;;;;;;;7.70;6.57;;;14.70;99.90;;;;;;5014172;28;20460;-49
2023/04/24 05:32:08;;;;;;;8.73;6.47;;;14.10;99.90;;;;;;5014594;28;20430;-49
2023/04/24 05:34:51;;;;;;;;;;;;;;;;;;;;;
2023/04/24 05:37:20;;;;;;;7.30;5.00;;;14.50;99.90;;;;;;4995731;28;20507;-49
2023/04/24 05:39:47;;;;;;;7.37;6.00;;;14.60;99.90;;;;;;5013558;28;20430;-49
2023/04/24 05:42:13;;;;;;;6.50;5.03;;;14.10;99.90;;;;;;5014246;28;20428;-48
2023/04/24 05:44:41;;;;;;;7.30;5.77;;;14.90;99.90;;;;;;5031357;28;20457;-50
2023/04/24 05:47:08;;;;;;;8.00;5.33;;;15.10;99.90;;;;;;5031840;28;20441;-52
2023/04/24 05:49:35;;;;;;;6.73;4.67;;;15.00;99.90;;;;;;5031823;28;20425;-48
2023/04/24 05:52:03;;;;;;;12.03;5.23;;;15.00;99.90;;;;;;5014425;28;20422;-49
2023/04/24 05:54:30;;;;;;;7.63;4.57;;;15.20;99.90;;;;;;5014843;28;20482;-49
2023/04/24 05:56:57;;;;;;;5.40;3.97;;;15.10;99.90;;;;;;5014401;28;20450;-49
2023/04/24 05:59:39;;;;;;;8.00;4.20;;;15.00;99.90;;;;;;5014802;28;20491;-49
2023/04/24 06:02:07;;;;;;;6.07;3.87;;;15.30;99.90;;;;;;5014766;28;20893;-49
2023/04/24 06:04:33;;;;;;;4.07;3.67;;;14.70;99.90;;;;;;5031803;28;20825;-48
2023/04/24 06:07:00;;;;;;;5.57;3.70;;;15.70;99.90;;;;;;5013082;28;20454;-50
2023/04/24 06:09:27;;;;;;;3.17;2.80;;;15.20;99.90;;;;;;5013248;28;20434;-49
2023/04/24 06:11:54;;;;;;;4.07;3.20;;;15.20;99.90;;;;;;5013746;28;20438;-48
2023/04/24 06:14:23;;;;;;;4.07;2.80;;;15.00;99.90;;;;;;5013039;28;20503;-49
2023/04/24 06:17:10;;;;;;;5.57;3.83;;;15.50;99.90;;;;;;5032008;28;20926;-49
2023/04/24 06:19:40;;;;;;;4.37;2.97;;;15.70;99.90;;;;;;5013372;28;20426;-49
2023/04/24 06:22:07;;;;;;;3.70;3.20;;;15.80;99.90;;;;;;5031439;28;20434;-49
2023/04/24 06:24:35;;;;;;;5.77;3.83;;;16.00;99.90;;;;;;5030756;28;20464;-49
2023/04/24 06:27:01;;;;;;;5.07;3.63;;;16.10;99.90;;;;;;5030674;28;20436;-49
2023/04/24 06:29:28;;;;;;;5.50;3.27;;;15.90;99.90;;;;;;5012746;28;20470;-49
2023/04/24 06:31:54;;;;;;;5.33;3.50;;;15.90;99.90;;;;;;5030446;28;20543;-49
2023/04/24 06:34:23;;;;;;;6.90;3.20;;;15.90;99.90;;;;;;5031128;28;20455;-49
2023/04/24 06:36:49;;;;;;;5.60;3.03;;;16.00;99.90;;;;;;5032701;28;20416;-50
2023/04/24 06:39:16;;;;;;;3.73;2.83;;;16.00;99.90;;;;;;5034242;28;20443;-49
2023/04/24 06:41:42;;;;;;;5.40;3.43;;;15.50;99.90;;;;;;5035279;28;20435;-49
2023/04/24 06:44:18;;;;;;;6.83;2.97;;;15.70;99.90;;;;;;5017362;28;20478;-49
2023/04/24 06:46:45;;;;;;;4.00;3.10;;;15.90;99.90;;;;;;5034963;28;20435;-49
2023/04/24 06:49:12;;;;;;;4.80;2.97;;;16.50;99.90;;;;;;5034745;28;20433;-50
2023/04/24 06:51:40;;;;;;;3.47;2.70;;;16.00;99.90;;;;;;5017413;28;20449;-50
2023/04/24 06:54:06;;;;;;;4.50;3.40;;;16.40;99.90;;;;;;5035024;28;20428;-49
2023/04/24 06:56:34;;;;;;;7.50;2.60;;;16.20;99.90;;;;;;5034356;28;20447;-50
2023/04/24 06:59:00;;;;;;;4.30;2.97;;;16.60;99.90;;;;;;5034705;28;20453;-50
2023/04/24 07:01:27;;;;;;;3.23;2.93;;;16.20;99.90;;;;;;5035319;28;20442;-49
2023/04/24 07:03:53;;;;;;;3.80;2.73;;;16.30;99.90;;;;;;5034601;28;20476;-57
2023/04/24 07:06:22;;;;;;;5.13;2.67;;;16.90;99.90;;;;;;5035103;28;20471;-49
2023/04/24 07:08:50;;;;;;;2.53;2.30;;;16.60;99.90;;;;;;5034525;28;20483;-48
2023/04/24 07:11:16;;;;;;;4.57;2.80;;;17.20;99.90;;;;;;5035438;28;20936;-49
2023/04/24 07:13:44;;;;;;;6.20;2.73;;;17.20;99.90;;;;;;5035139;28;20445;-50
2023/04/24 07:16:10;;;;;;;4.07;2.40;;;17.50;99.90;;;;;;5034599;28;20994;-48
2023/04/24 07:18:37;;;;;;;2.93;1.80;;;17.10;99.90;;;;;;5034226;28;20412;-49
2023/04/24 07:21:03;;;;;;;3.63;1.93;;;17.00;99.90;;;;;;5034955;28;20456;-49
2023/04/24 07:23:31;;;;;;;3.60;2.20;;;17.20;99.90;;;;;;5034669;28;20465;-49
2023/04/24 07:25:59;;;;;;;5.73;1.80;;;17.40;99.90;;;;;;5035107;28;20451;-49
2023/04/24 07:28:26;;;;;;;2.67;1.43;;;16.80;99.90;;;;;;5034136;28;20977;-49
2023/04/24 07:30:53;;;;;;;3.60;1.97;;;17.10;99.90;;;;;;5034671;28;20430;-50
2023/04/24 07:33:20;;;;;;;2.80;1.23;;;17.20;99.90;;;;;;5034590;28;20915;-48
2023/04/24 07:35:47;;;;;;;2.17;1.07;;;17.30;99.90;;;;;;5034202;28;20454;-48
2023/04/24 07:38:14;;;;;;;2.70;1.47;;;17.30;99.60;;;;;;5033804;28;20532;-49
2023/04/24 07:40:40;;;;;;;3.20;1.60;;;17.10;99.20;;;;;;5016053;28;20461;-49
2023/04/24 07:43:08;;;;;;;2.93;1.20;;;17.40;99.20;;;;;;5034113;28;20459;-49
2023/04/24 07:45:37;;;;;;;2.90;1.50;;;17.60;98.60;;;;;;5034179;28;20453;-48
2023/04/24 07:48:03;;;;;;;3.80;1.20;;;17.80;98.40;;;;;;5032913;28;20820;-50
2023/04/24 07:50:30;;;;;;;2.00;1.20;;;17.70;97.90;;;;;;5034855;28;20417;-50
2023/04/24 07:52:56;;;;;;;3.30;1.43;;;17.80;97.80;;;;;;5034234;28;20442;-49
2023/04/24 07:55:24;;;;;;;1.90;1.10;;;17.90;97.70;;;;;;5034195;28;20452;-49
2023/04/24 07:57:50;;;;;;;2.97;1.20;;;17.40;97.10;;;;;;5034093;28;20435;-50
2023/04/24 08:00:19;;;;;;;6.30;2.30;;;17.50;97.30;;;;;;5033311;28;20932;-50
2023/04/24 08:02:46;;;;;;;3.93;1.63;;;17.60;97.30;;;;;;5016138;28;20560;-50
2023/04/24 08:05:12;;;;;;;5.97;1.63;;;17.40;97.20;;;;;;5047539;22;20831;-49
2023/04/24 08:07:39;;;;;;;2.37;1.40;;;17.50;97.10;;;;;;5033849;28;20439;-48
2023/04/24 08:10:07;;;;;;;3.20;1.13;;;17.60;96.90;;;;;;5033011;28;20450;-48
2023/04/24 08:12:34;;;;;;;1.90;1.00;;;17.60;96.80;;;;;;5033586;28;20927;-52
2023/04/24 08:15:00;;;;;;;5.17;1.43;;;17.60;96.40;;;;;;5033380;28;20970;-47
2023/04/24 08:17:28;;;;;;;3.90;1.53;;;17.70;96.20;;;;;;5033578;28;20812;-48
2023/04/24 08:20:01;;;;;;;2.73;1.10;;;17.80;96.00;;;;;;5033092;28;20931;-48
2023/04/24 08:22:27;;;;;;;1.70;0.80;;;18.10;95.90;;;;;;5033675;28;20547;-47
2023/04/24 08:24:55;;;;;;;3.53;1.10;;;18.00;95.30;;;;;;5033336;28;20486;-49
2023/04/24 08:27:22;;;;;;;5.40;1.30;;;18.10;94.90;;;;;;5033904;28;20437;-48
2023/04/24 08:29:48;;;;;;;2.90;1.37;;;18.00;94.70;;;;;;5033228;28;20420;-48
2023/04/24 08:32:15;;;;;;;2.73;1.57;;;17.60;94.40;;;;;;5032816;28;20446;-48
2023/04/24 08:34:43;;;;;;;1.30;0.90;;;18.30;94.40;;;;;;5031637;28;20459;-48
2023/04/24 08:37:10;;;;;;;5.33;1.53;;;18.30;94.20;;;;;;5032658;28;20438;-48
2023/04/24 08:39:37;;;;;;;1.50;0.90;;;18.60;93.80;;;;;;5032713;28;20546;-49
2023/04/24 08:42:07;;;;;;;2.17;1.40;;;18.40;93.20;;;;;;5032921;28;20435;-48
2023/04/24 08:44:35;;;;;;;4.23;1.03;;;18.60;93.20;;;;;;5032726;28;20483;-48
2023/04/24 08:47:03;;;;;;;2.53;1.20;;;18.80;92.80;;;;;;5031275;28;20835;-49
2023/04/24 08:49:30;;;;;;;4.63;0.87;;;18.70;92.60;;;;;;5032346;28;20809;-48
2023/04/24 08:51:59;;;;;;;1.87;1.17;;;18.70;91.90;;;;;;5032307;28;20427;-48
2023/04/24 08:54:26;;;;;;;2.03;0.97;;;18.80;91.60;;;;;;5032725;28;20438;-49
2023/04/24 08:56:58;;;;;;;2.40;1.10;;;19.30;91.80;;;;;;5032415;28;20546;-47
2023/04/24 08:59:25;;;;;;;2.60;1.30;;;19.30;91.60;;;;;;5031608;28;20438;-48
2023/04/24 09:01:52;;;;;;;5.73;1.67;;;19.40;91.30;;;;;;5031990;28;20436;-49
2023/04/24 09:04:21;;;;;;;8.50;2.10;;;19.50;91.20;;;;;;5031726;28;20870;-49
2023/04/24 09:06:49;;;;;;;3.23;2.10;;;19.60;90.80;;;;;;5031639;28;20467;-48
2023/04/24 09:09:18;;;;;;;1.70;1.27;;;19.40;90.20;;;;;;5031403;28;20439;-48
2023/04/24 09:11:45;;;;;;;3.90;2.17;;;19.70;90.10;;;;;;5032297;28;20451;-47
2023/04/24 09:14:12;;;;;;;6.70;1.20;;;19.30;90.00;;;;;;5032317;28;20956;-49
2023/04/24 09:16:38;;;;;;;2.97;1.30;;;19.50;90.00;;;;;;5032473;28;20475;-48
2023/04/24 09:19:05;;;;;;;5.17;1.70;;;19.70;89.20;;;;;;5031700;28;20448;-49
2023/04/24 09:21:33;;;;;;;2.23;1.40;;;19.90;88.80;;;;;;5030549;28;20444;-49
2023/04/24 09:24:01;;;;;;;2.00;1.20;;;19.60;88.20;;;;;;5032109;28;20481;-48
2023/04/24 09:26:32;;;;;;;2.73;1.17;;;19.50;87.90;;;;;;5031603;28;20464;-48
2023/04/24 09:29:00;;;;;;;4.90;1.40;;;19.50;86.70;;;;;;5029876;28;20983;-48
2023/04/24 09:31:29;;;;;;;2.00;1.23;;;19.70;87.20;;;;;;5030524;28;20460;-47
2023/04/24 09:33:57;;;;;;;3.07;1.63;;;19.70;88.30;;;;;;5031578;28;20522;-49
2023/04/24 09:36:33;;;;;;;2.20;1.40;;;19.50;89.30;;;;;;5031564;28;20531;-48
2023/04/24 09:39:00;;;;;;;3.43;1.30;;;19.40;90.00;;;;;;5031083;28;20450;-47
2023/04/24 09:41:28;;;;;;;2.60;1.93;;;19.40;90.30;;;;;;5031813;28;20799;-48
2023/04/24 09:43:57;;;;;;;3.27;1.10;;;19.50;90.60;;;;;;5031396;28;20476;-47
2023/04/24 09:46:31;;;;;;;3.63;1.47;;;19.10;90.60;;;;;;5031325;28;20456;-49
2023/04/24 09:48:58;;;;;;;1.87;1.20;;;19.80;91.10;;;;;;5031027;28;20853;-49
2023/04/24 09:51:36;;;;;;;2.77;1.17;;;19.80;91.20;;;;;;5031257;28;20427;-49
2023/04/24 09:54:03;;;;;;;4.03;1.20;;;19.90;90.80;;;;;;5031385;28;20916;-48
2023/04/24 09:56:34;;;;;;;2.93;1.27;;;19.90;91.00;;;;;;5031132;28;20546;-49
2023/04/24 09:59:07;;;;;;;3.50;1.23;;;19.30;90.70;;;;;;5029529;28;20522;-49
2023/04/24 10:01:34;;;;;;;2.03;1.30;;;19.70;90.90;;;;;;5031233;28;20580;-49
2023/04/24 10:04:01;;;;;;;2.87;1.50;;;19.90;90.80;;;;;;5031113;28;20821;-49
2023/04/24 10:06:33;;;;;;;3.63;1.20;;;19.80;90.40;;;;;;5030948;28;20468;-49
2023/04/24 10:09:00;;;;;;;2.20;0.97;;;19.50;89.70;;;;;;5031062;28;20439;-47
2023/04/24 10:11:28;;;;;;;2.47;1.00;;;20.00;89.90;;;;;;5031843;28;20493;-49
2023/04/24 10:13:55;;;;;;;3.63;1.30;;;20.30;89.10;;;;;;5034952;28;20433;-49
2023/04/24 10:16:24;;;;;;;1.90;1.23;;;20.40;89.20;;;;;;5034797;28;20467;-50
2023/04/24 10:18:51;;;;;;;3.10;1.97;;;20.70;88.70;;;;;;5034800;28;20531;-49
2023/04/24 10:21:17;;;;;;;2.33;1.43;;;20.50;88.40;;;;;;5035108;28;20495;-50
2023/04/24 10:23:46;;;;;;;2.87;1.37;;;20.50;87.80;;;;;;5034652;28;20456;-48
2023/04/24 10:26:17;;;;;;;2.90;1.53;;;20.10;86.70;;;;;;5034795;28;20568;-49
2023/04/24 10:28:45;;;;;;;2.30;1.00;;;20.50;86.50;;;;;;5034321;28;20441;-49
2023/04/24 10:31:13;;;;;;;4.30;1.63;;;20.60;86.10;;;;;;5035008;28;20822;-50
2023/04/24 10:33:42;;;;;;;3.70;1.30;;;20.50;85.60;;;;;;5035327;28;20440;-49
2023/04/24 10:36:11;;;;;;;2.60;1.50;;;20.70;85.80;;;;;;5034871;28;20843;-50
2023/04/24 10:38:39;;;;;;;1.90;1.03;;;20.70;85.20;;;;;;5034488;28;20461;-48
2023/04/24 10:41:15;;;;;;;3.70;1.67;;;20.70;85.10;;;;;;5046624;28;20445;-49
2023/04/24 10:43:43;;;;;;;2.77;1.97;;;20.70;85.30;;;;;;5054825;28;20522;-49
2023/04/24 10:46:10;;;;;;;3.93;1.57;;;20.70;85.20;;;;;;5055173;28;20638;-49
2023/04/24 10:48:45;;;;;;;3.07;1.60;;;20.70;85.10;;;;;;5054617;28;20942;-49
2023/04/24 10:51:15;;;;;;;2.90;1.67;;;20.50;85.10;;;;;;5054386;28;20476;-49
2023/04/24 10:53:42;;;;;;;4.10;1.47;;;20.20;84.50;;;;;;5054888;28;20457;-49
2023/04/24 10:56:10;;;;;;;5.17;2.37;;;19.90;84.30;;;;;;5054351;28;20797;-48
2023/04/24 10:58:39;;;;;;;3.60;1.47;;;20.00;84.70;;;;;;5054887;28;20775;-49
2023/04/24 11:01:07;;;;;;;2.17;1.10;;;20.00;85.20;;;;;;5055001;28;20523;-48
2023/04/24 11:03:36;;;;;;;5.20;2.00;;;20.20;85.70;;;;;;5055129;28;20437;-49
2023/04/24 11:06:05;;;;;;;5.20;1.30;;;19.90;85.30;;;;;;5053914;28;20516;-48
2023/04/24 11:08:38;;;;;;;1.80;0.90;;;20.30;85.90;;;;;;5054274;28;20428;-48
2023/04/24 11:11:10;;;;;;;2.10;1.37;;;19.80;85.40;;;;;;5054942;28;20542;-48
2023/04/24 11:14:03;;;;;;;2.23;1.30;;;20.00;86.00;;;;;;5054914;28;20791;-48
2023/04/24 11:16:32;;;;;;;10.40;3.20;;;20.10;85.30;;;;;;5054717;28;20496;-49
2023/04/24 11:19:02;;;;;;;2.73;1.40;;;20.20;84.80;;;;;;5054098;28;20436;-48
2023/04/24 11:21:41;;;;;;;2.87;1.10;;;20.20;84.10;;;;;;5054257;28;20432;-49
2023/04/24 11:24:28;;;;;;;1.63;1.00;;;20.50;83.90;;;;;;5053203;28;20991;-49
2023/04/24 11:26:56;;;;;;;4.67;1.73;;;20.70;83.40;;;;;;5052606;28;20461;-47
2023/04/24 11:29:23;;;;;;;3.53;1.20;;;20.30;82.90;;;;;;5053713;28;20441;-49
2023/04/24 11:31:51;;;;;;;5.27;1.60;;;20.40;82.70;;;;;;5054060;28;20461;-49
2023/04/24 11:34:18;;;;;;;3.67;1.17;;;20.40;82.50;;;;;;5053702;28;20484;-48
2023/04/24 11:36:47;;;;;;;2.80;1.60;;;20.90;83.00;;;;;;5053829;28;20966;-49
2023/04/24 11:39:15;;;;;;;1.70;1.03;;;20.60;82.30;;;;;;5053657;28;20483;-49
2023/04/24 11:41:41;;;;;;;5.47;2.33;;;20.50;82.30;;;;;;5053797;28;20434;-49
2023/04/24 11:44:10;;;;;;;5.70;1.90;;;20.60;82.40;;;;;;5053661;28;20453;-48
2023/04/24 11:46:37;;;;;;;2.60;1.63;;;20.40;82.80;;;;;;5053398;28;20485;-48
2023/04/24 11:49:05;;;;;;;4.50;1.40;;;20.00;84.80;;;;;;5053606;28;20478;-48
2023/04/24 11:51:31;;;;;;;4.07;1.80;;;19.90;87.20;;;;;;5053332;28;20449;-49
2023/04/24 11:54:00;;;;;;;1.40;1.00;;;19.70;89.60;;;;;;5053717;28;20461;-49
2023/04/24 11:56:26;;;;;;;2.90;1.80;;;19.30;89.40;;;;;;5053739;28;20455;-48
2023/04/24 11:58:54;;;;;;;1.60;1.00;;;19.90;90.10;;;;;;5053478;28;20910;-49
2023/04/24 12:01:21;;;;;;;2.50;1.57;;;19.80;90.10;;;;;;5053862;28;20471;-48
2023/04/24 12:03:50;;;;;;;2.80;1.10;;;19.90;90.40;;;;;;5054392;28;20441;-48
2023/04/24 12:06:17;;;;;;;4.20;1.40;;;19.80;90.30;;;;;;5053774;28;20857;-49
2023/04/24 12:08:47;;;;;;;2.20;1.00;;;20.00;90.30;;;;;;5053949;28;20450;-48
2023/04/24 12:11:17;;;;;;;6.93;1.50;;;19.90;90.40;;;;;;5053854;28;20520;-49
2023/04/24 12:13:44;;;;;;;3.30;1.33;;;20.00;90.60;;;;;;5054608;28;20421;-46
2023/04/24 12:16:11;;;;;;;5.33;1.30;;;20.10;90.60;;;;;;5053850;28;20814;-49
2023/04/24 12:18:43;;;;;;;2.17;1.13;;;20.00;90.20;;;;;;5051862;28;20492;-48
2023/04/24 12:21:17;;;;;;;4.27;1.87;;;19.80;90.10;;;;;;5053555;28;20760;-47
2023/04/24 12:23:45;;;;;;;1.50;1.20;;;19.60;90.80;;;;;;5053312;28;20437;-48
2023/04/24 12:26:12;;;;;;;2.60;1.60;;;19.40;90.80;;;;;;5051656;28;20487;-50
2023/04/24 12:28:40;;;;;;;4.53;2.00;;;19.50;91.00;;;;;;5052839;28;20439;-49
2023/04/24 12:31:07;;;;;;;2.80;1.77;;;19.20;91.00;;;;;;5053550;28;20473;-48
2023/04/24 12:33:35;;;;;;;2.33;1.50;;;19.10;91.20;;;;;;5053865;28;20484;-48
2023/04/24 12:36:02;;;;;;;1.90;1.30;;;19.50;91.40;;;;;;5052736;28;20823;-49
2023/04/24 12:38:30;;;;;;;2.27;1.40;;;19.30;90.80;;;;;;5052693;28;20423;-48
2023/04/24 12:41:04;;;;;;;3.63;1.77;;;19.30;90.50;;;;;;5052881;28;20754;-49
2023/04/24 12:43:31;;;;;;;1.73;0.97;;;19.50;88.50;;;;;;5052904;28;20492;-48
2023/04/24 12:45:59;;;;;;;4.00;1.10;;;19.40;82.70;;;;;;5052588;28;20550;-48
2023/04/24 12:48:26;;;;;;;5.90;0.97;;;19.70;80.20;;;;;;5052766;28;20435;-49
2023/04/24 12:50:53;;;;;;;4.00;1.27;;;19.80;79.10;;;;;;5052273;28;20437;-49
2023/04/24 12:53:19;;;;;;;2.30;1.23;;;19.60;78.00;;;;;;5052773;28;20979;-48
2023/04/24 12:55:52;;;;;;;2.13;1.03;;;20.00;76.20;;;;;;5052094;28;20468;-49